sensor_id;sensor_type;location;lat;lon;timestamp;temperature;humidity
29295;DHT22;16305;48.566;8.846;2022-11-24T00:01:11;5.30;99.90
29295;DHT22;16305;48.566;8.846;2022-11-24T00:03:37;5.20;99.90
29295;DHT22;16305;48.566;8.846;2022-11-24T00:06:10;5.10;99.90
29295;DHT22;16305;48.566;8.846;2022-11-24T00:08:37;5.00;99.90
29295;DHT22;16305;48.566;8.846;2022-11-24T00:11:11;5.00;99.90
29295;DHT22;16305;48.566;8.846;2022-11-24T00:13:37;5.00;99.90
29295;DHT22;16305;48.566;8.846;2022-11-24T00:16:08;5.00;99.90
29295;DHT22;16305;48.566;8.846;2022-11-24T00:18:35;5.00;99.90
29295;DHT22;16305;48.566;8.846;2022-11-24T00:21:00;5.10;99.90
29295;DHT22;16305;48.566;8.846;2022-11-24T00:23:26;5.20;99.90
29295;DHT22;16305;48.566;8.846;2022-11-24T00:25:51;5.10;99.90
29295;DHT22;16305;48.566;8.846;2022-11-24T00:28:17;5.10;99.90
29295;DHT22;16305;48.566;8.846;2022-11-24T00:30:42;5.10;99.90
29295;DHT22;16305;48.566;8.846;2022-11-24T00:33:08;5.10;99.90
29295;DHT22;16305;48.566;8.846;2022-11-24T00:35:33;5.10;99.90
29295;DHT22;16305;48.566;8.846;2022-11-24T00:37:59;5.10;99.90
29295;DHT22;16305;48.566;8.846;2022-11-24T00:40:25;5.10;99.90
29295;DHT22;16305;48.566;8.846;2022-11-24T00:42:50;5.20;99.90
29295;DHT22;16305;48.566;8.846;2022-11-24T00:45:16;5.30;99.90
29295;DHT22;16305;48.566;8.846;2022-11-24T00:47:41;5.30;99.90
29295;DHT22;16305;48.566;8.846;2022-11-24T00:50:07;5.40;99.90
29295;DHT22;16305;48.566;8.846;2022-11-24T00:52:32;5.30;99.90
29295;DHT22;16305;48.566;8.846;2022-11-24T00:54:58;5.30;99.90
29295;DHT22;16305;48.566;8.846;2022-11-24T00:57:23;5.30;99.90
29295;DHT22;16305;48.566;8.846;2022-11-24T00:59:49;5.30;99.90
29295;DHT22;16305;48.566;8.846;2022-11-24T01:02:14;5.20;99.90
29295;DHT22;16305;48.566;8.846;2022-11-24T01:04:40;5.20;99.90
29295;DHT22;16305;48.566;8.846;2022-11-24T01:07:05;5.10;99.90
29295;DHT22;16305;48.566;8.846;2022-11-24T01:09:31;5.10;99.90
29295;DHT22;16305;48.566;8.846;2022-11-24T01:11:57;5.10;99.90
29295;DHT22;16305;48.566;8.846;2022-11-24T01:14:29;5.10;99.90
29295;DHT22;16305;48.566;8.846;2022-11-24T01:16:55;5.10;99.90
29295;DHT22;16305;48.566;8.846;2022-11-24T01:19:21;5.00;99.90
29295;DHT22;16305;48.566;8.846;2022-11-24T01:21:47;5.00;99.90
29295;DHT22;16305;48.566;8.846;2022-11-24T01:24:13;5.00;99.90
29295;DHT22;16305;48.566;8.846;2022-11-24T01:26:38;5.00;99.90
29295;DHT22;16305;48.566;8.846;2022-11-24T01:29:04;5.00;99.90
29295;DHT22;16305;48.566;8.846;2022-11-24T01:31:29;5.00;99.90
29295;DHT22;16305;48.566;8.846;2022-11-24T01:33:57;5.00;99.90
29295;DHT22;16305;48.566;8.846;2022-11-24T01:36:22;5.10;99.90
29295;DHT22;16305;48.566;8.846;2022-11-24T01:38:48;5.10;99.90
29295;DHT22;16305;48.566;8.846;2022-11-24T01:41:16;5.10;99.90
29295;DHT22;16305;48.566;8.846;2022-11-24T01:43:43;5.10;99.90
29295;DHT22;16305;48.566;8.846;2022-11-24T01:49:08;5.00;99.90
29295;DHT22;16305;48.566;8.846;2022-11-24T01:51:40;5.10;99.90
29295;DHT22;16305;48.566;8.846;2022-11-24T01:54:11;5.10;99.90
29295;DHT22;16305;48.566;8.846;2022-11-24T01:56:39;5.10;99.90
29295;DHT22;16305;48.566;8.846;2022-11-24T01:59:09;5.10;99.90
29295;DHT22;16305;48.566;8.846;2022-11-24T02:01:36;5.10;99.90
29295;DHT22;16305;48.566;8.846;2022-11-24T02:04:04;5.10;99.90
29295;DHT22;16305;48.566;8.846;2022-11-24T02:06:32;5.10;99.90
29295;DHT22;16305;48.566;8.846;2022-11-24T02:09:07;5.10;99.90
29295;DHT22;16305;48.566;8.846;2022-11-24T02:11:38;5.20;99.90
29295;DHT22;16305;48.566;8.846;2022-11-24T02:14:05;5.10;99.90
29295;DHT22;16305;48.566;8.846;2022-11-24T02:16:33;5.10;99.90
29295;DHT22;16305;48.566;8.846;2022-11-24T02:19:00;5.00;99.90
29295;DHT22;16305;48.566;8.846;2022-11-24T02:21:26;5.00;99.90
29295;DHT22;16305;48.566;8.846;2022-11-24T02:24:03;4.90;99.90
29295;DHT22;16305;48.566;8.846;2022-11-24T02:26:41;4.70;99.90
29295;DHT22;16305;48.566;8.846;2022-11-24T02:29:08;4.60;99.90
29295;DHT22;16305;48.566;8.846;2022-11-24T02:31:34;4.60;99.90
29295;DHT22;16305;48.566;8.846;2022-11-24T02:34:00;4.60;99.90
29295;DHT22;16305;48.566;8.846;2022-11-24T02:36:26;4.40;99.90
29295;DHT22;16305;48.566;8.846;2022-11-24T02:38:51;4.30;99.90
29295;DHT22;16305;48.566;8.846;2022-11-24T02:41:19;4.30;99.90
29295;DHT22;16305;48.566;8.846;2022-11-24T02:43:55;4.20;99.90
29295;DHT22;16305;48.566;8.846;2022-11-24T02:46:22;4.20;99.90
29295;DHT22;16305;48.566;8.846;2022-11-24T02:48:48;4.10;99.90
29295;DHT22;16305;48.566;8.846;2022-11-24T02:51:13;4.10;99.90
29295;DHT22;16305;48.566;8.846;2022-11-24T02:53:39;4.10;99.90
29295;DHT22;16305;48.566;8.846;2022-11-24T02:56:04;4.20;99.90
29295;DHT22;16305;48.566;8.846;2022-11-24T02:58:30;4.20;99.90
29295;DHT22;16305;48.566;8.846;2022-11-24T03:00:56;4.20;99.90
29295;DHT22;16305;48.566;8.846;2022-11-24T03:03:23;4.20;99.90
29295;DHT22;16305;48.566;8.846;2022-11-24T03:05:48;4.20;99.90
29295;DHT22;16305;48.566;8.846;2022-11-24T03:08:14;4.20;99.90
29295;DHT22;16305;48.566;8.846;2022-11-24T03:10:40;4.10;99.90
29295;DHT22;16305;48.566;8.846;2022-11-24T03:13:05;4.10;99.90
29295;DHT22;16305;48.566;8.846;2022-11-24T03:15:31;4.10;99.90
29295;DHT22;16305;48.566;8.846;2022-11-24T03:17:57;4.10;99.90
29295;DHT22;16305;48.566;8.846;2022-11-24T03:20:23;4.10;99.90
29295;DHT22;16305;48.566;8.846;2022-11-24T03:22:49;4.00;99.90
29295;DHT22;16305;48.566;8.846;2022-11-24T03:25:14;4.00;99.90
29295;DHT22;16305;48.566;8.846;2022-11-24T03:27:40;3.90;99.90
29295;DHT22;16305;48.566;8.846;2022-11-24T03:30:06;3.80;99.90
29295;DHT22;16305;48.566;8.846;2022-11-24T03:32:32;3.80;99.90
29295;DHT22;16305;48.566;8.846;2022-11-24T03:34:58;3.80;99.90
29295;DHT22;16305;48.566;8.846;2022-11-24T03:37:23;3.70;99.90
29295;DHT22;16305;48.566;8.846;2022-11-24T03:39:49;3.70;99.90
29295;DHT22;16305;48.566;8.846;2022-11-24T03:42:15;3.70;99.90
29295;DHT22;16305;48.566;8.846;2022-11-24T03:44:40;3.70;99.90
29295;DHT22;16305;48.566;8.846;2022-11-24T03:47:06;3.60;99.90
29295;DHT22;16305;48.566;8.846;2022-11-24T03:49:31;3.60;99.90
29295;DHT22;16305;48.566;8.846;2022-11-24T03:51:57;3.50;99.90
29295;DHT22;16305;48.566;8.846;2022-11-24T03:54:22;3.50;99.90
29295;DHT22;16305;48.566;8.846;2022-11-24T03:56:48;3.40;99.90
29295;DHT22;16305;48.566;8.846;2022-11-24T03:59:13;3.50;99.90
29295;DHT22;16305;48.566;8.846;2022-11-24T04:01:39;3.60;99.90
29295;DHT22;16305;48.566;8.846;2022-11-24T04:04:04;3.60;99.90
29295;DHT22;16305;48.566;8.846;2022-11-24T04:06:30;3.50;99.90
29295;DHT22;16305;48.566;8.846;2022-11-24T04:08:56;3.60;99.90
29295;DHT22;16305;48.566;8.846;2022-11-24T04:11:21;3.70;99.90
29295;DHT22;16305;48.566;8.846;2022-11-24T04:14:05;3.70;99.90
29295;DHT22;16305;48.566;8.846;2022-11-24T04:16:31;3.80;99.90
29295;DHT22;16305;48.566;8.846;2022-11-24T04:18:56;3.80;99.90
29295;DHT22;16305;48.566;8.846;2022-11-24T04:21:22;3.90;99.90
29295;DHT22;16305;48.566;8.846;2022-11-24T04:23:47;3.90;99.90
29295;DHT22;16305;48.566;8.846;2022-11-24T04:26:13;3.90;99.90
29295;DHT22;16305;48.566;8.846;2022-11-24T04:28:39;3.90;99.90
29295;DHT22;16305;48.566;8.846;2022-11-24T04:31:05;3.80;99.90
29295;DHT22;16305;48.566;8.846;2022-11-24T04:33:31;3.80;99.90
29295;DHT22;16305;48.566;8.846;2022-11-24T04:35:56;3.80;99.90
29295;DHT22;16305;48.566;8.846;2022-11-24T04:38:22;3.70;99.90
29295;DHT22;16305;48.566;8.846;2022-11-24T04:40:47;3.80;99.90
29295;DHT22;16305;48.566;8.846;2022-11-24T04:43:13;3.70;99.90
29295;DHT22;16305;48.566;8.846;2022-11-24T04:45:38;3.70;99.90
29295;DHT22;16305;48.566;8.846;2022-11-24T04:48:04;3.60;99.90
29295;DHT22;16305;48.566;8.846;2022-11-24T04:50:30;3.50;99.90
29295;DHT22;16305;48.566;8.846;2022-11-24T04:52:55;3.60;99.90
29295;DHT22;16305;48.566;8.846;2022-11-24T04:55:21;3.70;99.90
29295;DHT22;16305;48.566;8.846;2022-11-24T04:57:46;3.70;99.90
29295;DHT22;16305;48.566;8.846;2022-11-24T05:00:12;3.60;99.90
29295;DHT22;16305;48.566;8.846;2022-11-24T05:02:38;3.60;99.90
29295;DHT22;16305;48.566;8.846;2022-11-24T05:05:05;3.70;99.90
29295;DHT22;16305;48.566;8.846;2022-11-24T05:07:31;3.70;99.90
29295;DHT22;16305;48.566;8.846;2022-11-24T05:09:57;3.80;99.90
29295;DHT22;16305;48.566;8.846;2022-11-24T05:12:40;3.90;99.90
29295;DHT22;16305;48.566;8.846;2022-11-24T05:15:06;4.10;99.90
29295;DHT22;16305;48.566;8.846;2022-11-24T05:17:34;4.30;99.90
29295;DHT22;16305;48.566;8.846;2022-11-24T05:20:01;4.40;99.90
29295;DHT22;16305;48.566;8.846;2022-11-24T05:22:28;4.50;99.90
29295;DHT22;16305;48.566;8.846;2022-11-24T05:24:53;4.50;99.90
29295;DHT22;16305;48.566;8.846;2022-11-24T05:27:19;4.60;99.90
29295;DHT22;16305;48.566;8.846;2022-11-24T05:29:44;4.60;99.90
29295;DHT22;16305;48.566;8.846;2022-11-24T05:32:10;4.70;99.90
29295;DHT22;16305;48.566;8.846;2022-11-24T05:34:36;4.80;99.90
29295;DHT22;16305;48.566;8.846;2022-11-24T05:37:02;4.90;99.90
29295;DHT22;16305;48.566;8.846;2022-11-24T05:39:34;4.90;99.90
29295;DHT22;16305;48.566;8.846;2022-11-24T05:42:04;5.00;99.90
29295;DHT22;16305;48.566;8.846;2022-11-24T05:44:49;5.00;99.90
29295;DHT22;16305;48.566;8.846;2022-11-24T05:47:14;5.00;99.90
29295;DHT22;16305;48.566;8.846;2022-11-24T05:49:40;4.90;99.90
29295;DHT22;16305;48.566;8.846;2022-11-24T05:52:05;4.80;99.90
29295;DHT22;16305;48.566;8.846;2022-11-24T05:54:31;4.80;99.90
29295;DHT22;16305;48.566;8.846;2022-11-24T05:56:56;4.80;99.90
29295;DHT22;16305;48.566;8.846;2022-11-24T05:59:22;4.80;99.90
29295;DHT22;16305;48.566;8.846;2022-11-24T06:01:47;4.80;99.90
29295;DHT22;16305;48.566;8.846;2022-11-24T06:04:13;4.80;99.90
29295;DHT22;16305;48.566;8.846;2022-11-24T06:06:38;4.80;99.90
29295;DHT22;16305;48.566;8.846;2022-11-24T06:09:04;4.80;99.90
29295;DHT22;16305;48.566;8.846;2022-11-24T06:11:30;4.80;99.90
29295;DHT22;16305;48.566;8.846;2022-11-24T06:13:56;4.70;99.90
29295;DHT22;16305;48.566;8.846;2022-11-24T06:16:21;4.60;99.90
29295;DHT22;16305;48.566;8.846;2022-11-24T06:18:47;4.50;99.90
29295;DHT22;16305;48.566;8.846;2022-11-24T06:21:13;4.30;99.90
29295;DHT22;16305;48.566;8.846;2022-11-24T06:23:39;4.10;99.90
29295;DHT22;16305;48.566;8.846;2022-11-24T06:26:05;4.00;99.90
29295;DHT22;16305;48.566;8.846;2022-11-24T06:28:30;3.90;99.90
29295;DHT22;16305;48.566;8.846;2022-11-24T06:31:01;3.90;99.90
29295;DHT22;16305;48.566;8.846;2022-11-24T06:33:32;4.00;99.90
29295;DHT22;16305;48.566;8.846;2022-11-24T06:36:00;4.00;99.90
29295;DHT22;16305;48.566;8.846;2022-11-24T06:38:27;4.00;99.90
29295;DHT22;16305;48.566;8.846;2022-11-24T06:40:59;4.10;99.90
29295;DHT22;16305;48.566;8.846;2022-11-24T06:43:26;4.10;99.90
29295;DHT22;16305;48.566;8.846;2022-11-24T06:45:52;4.20;99.90
29295;DHT22;16305;48.566;8.846;2022-11-24T06:48:17;4.20;99.90
29295;DHT22;16305;48.566;8.846;2022-11-24T06:50:43;4.30;99.90
29295;DHT22;16305;48.566;8.846;2022-11-24T06:53:08;4.40;99.90
29295;DHT22;16305;48.566;8.846;2022-11-24T06:55:34;4.40;99.90
29295;DHT22;16305;48.566;8.846;2022-11-24T06:58:00;4.50;99.90
29295;DHT22;16305;48.566;8.846;2022-11-24T07:00:26;4.60;99.90
29295;DHT22;16305;48.566;8.846;2022-11-24T07:02:53;4.60;99.90
29295;DHT22;16305;48.566;8.846;2022-11-24T07:05:19;4.70;99.90
29295;DHT22;16305;48.566;8.846;2022-11-24T07:07:44;4.70;99.90
29295;DHT22;16305;48.566;8.846;2022-11-24T07:10:10;4.80;99.90
29295;DHT22;16305;48.566;8.846;2022-11-24T07:12:35;4.80;99.90
29295;DHT22;16305;48.566;8.846;2022-11-24T07:15:01;4.80;99.90
29295;DHT22;16305;48.566;8.846;2022-11-24T07:17:26;4.90;99.90
29295;DHT22;16305;48.566;8.846;2022-11-24T07:19:52;4.90;99.90
29295;DHT22;16305;48.566;8.846;2022-11-24T07:22:17;5.00;99.90
29295;DHT22;16305;48.566;8.846;2022-11-24T07:24:43;5.00;99.90
29295;DHT22;16305;48.566;8.846;2022-11-24T07:27:08;5.00;99.90
29295;DHT22;16305;48.566;8.846;2022-11-24T07:29:34;5.00;99.90
29295;DHT22;16305;48.566;8.846;2022-11-24T07:31:59;5.00;99.90
29295;DHT22;16305;48.566;8.846;2022-11-24T07:34:25;5.10;99.90
29295;DHT22;16305;48.566;8.846;2022-11-24T07:36:50;5.20;99.90
29295;DHT22;16305;48.566;8.846;2022-11-24T07:39:16;5.30;99.90
29295;DHT22;16305;48.566;8.846;2022-11-24T07:41:42;5.30;99.90
29295;DHT22;16305;48.566;8.846;2022-11-24T07:44:07;5.40;99.90
29295;DHT22;16305;48.566;8.846;2022-11-24T07:46:32;5.60;99.90
29295;DHT22;16305;48.566;8.846;2022-11-24T07:48:58;5.60;99.90
29295;DHT22;16305;48.566;8.846;2022-11-24T07:51:24;5.70;99.90
29295;DHT22;16305;48.566;8.846;2022-11-24T07:53:49;5.70;99.90
29295;DHT22;16305;48.566;8.846;2022-11-24T07:56:15;5.80;99.90
29295;DHT22;16305;48.566;8.846;2022-11-24T07:58:40;5.80;99.90
29295;DHT22;16305;48.566;8.846;2022-11-24T08:01:14;5.80;99.90
29295;DHT22;16305;48.566;8.846;2022-11-24T08:03:42;5.80;99.90
29295;DHT22;16305;48.566;8.846;2022-11-24T08:06:08;5.70;99.90
29295;DHT22;16305;48.566;8.846;2022-11-24T08:08:33;5.70;99.90
29295;DHT22;16305;48.566;8.846;2022-11-24T08:11:07;5.60;99.90
29295;DHT22;16305;48.566;8.846;2022-11-24T08:13:34;5.60;99.90
29295;DHT22;16305;48.566;8.846;2022-11-24T08:16:03;5.60;99.90
29295;DHT22;16305;48.566;8.846;2022-11-24T08:18:29;5.50;99.90
29295;DHT22;16305;48.566;8.846;2022-11-24T08:20:57;5.40;99.90
29295;DHT22;16305;48.566;8.846;2022-11-24T08:23:23;5.40;99.90
29295;DHT22;16305;48.566;8.846;2022-11-24T08:25:48;5.40;99.90
29295;DHT22;16305;48.566;8.846;2022-11-24T08:28:14;5.40;99.90
29295;DHT22;16305;48.566;8.846;2022-11-24T08:30:39;5.30;99.90
29295;DHT22;16305;48.566;8.846;2022-11-24T08:33:05;5.40;99.90
29295;DHT22;16305;48.566;8.846;2022-11-24T08:35:30;5.40;99.90
29295;DHT22;16305;48.566;8.846;2022-11-24T08:37:59;5.40;99.90
29295;DHT22;16305;48.566;8.846;2022-11-24T08:40:26;5.30;99.90
29295;DHT22;16305;48.566;8.846;2022-11-24T08:42:56;5.30;99.90
29295;DHT22;16305;48.566;8.846;2022-11-24T08:45:22;5.30;99.90
29295;DHT22;16305;48.566;8.846;2022-11-24T08:47:51;5.30;99.90
29295;DHT22;16305;48.566;8.846;2022-11-24T08:50:18;5.30;99.90
29295;DHT22;16305;48.566;8.846;2022-11-24T08:52:43;5.30;99.90
29295;DHT22;16305;48.566;8.846;2022-11-24T08:55:09;5.40;99.90
29295;DHT22;16305;48.566;8.846;2022-11-24T08:57:35;5.40;99.90
29295;DHT22;16305;48.566;8.846;2022-11-24T09:00:00;5.40;99.90
29295;DHT22;16305;48.566;8.846;2022-11-24T09:02:26;5.40;99.90
29295;DHT22;16305;48.566;8.846;2022-11-24T09:04:52;5.40;99.90
29295;DHT22;16305;48.566;8.846;2022-11-24T09:07:17;5.50;99.90
29295;DHT22;16305;48.566;8.846;2022-11-24T09:09:43;5.50;99.90
29295;DHT22;16305;48.566;8.846;2022-11-24T09:12:08;5.50;99.90
29295;DHT22;16305;48.566;8.846;2022-11-24T09:14:34;5.50;99.90
29295;DHT22;16305;48.566;8.846;2022-11-24T09:16:59;5.50;99.90
29295;DHT22;16305;48.566;8.846;2022-11-24T09:19:25;5.40;99.90
29295;DHT22;16305;48.566;8.846;2022-11-24T09:21:51;5.50;99.90
29295;DHT22;16305;48.566;8.846;2022-11-24T09:24:16;5.50;99.90
29295;DHT22;16305;48.566;8.846;2022-11-24T09:26:42;5.50;99.90
29295;DHT22;16305;48.566;8.846;2022-11-24T09:29:09;5.50;99.90
29295;DHT22;16305;48.566;8.846;2022-11-24T09:31:35;5.60;99.90
29295;DHT22;16305;48.566;8.846;2022-11-24T09:34:04;5.70;99.90
29295;DHT22;16305;48.566;8.846;2022-11-24T09:36:29;5.90;99.90
29295;DHT22;16305;48.566;8.846;2022-11-24T09:38:56;6.00;99.90
29295;DHT22;16305;48.566;8.846;2022-11-24T09:41:43;6.10;99.90
29295;DHT22;16305;48.566;8.846;2022-11-24T09:44:16;6.20;99.90
29295;DHT22;16305;48.566;8.846;2022-11-24T09:47:07;6.40;99.90
29295;DHT22;16305;48.566;8.846;2022-11-24T09:49:37;6.50;99.90
29295;DHT22;16305;48.566;8.846;2022-11-24T09:52:08;6.50;99.90
29295;DHT22;16305;48.566;8.846;2022-11-24T09:54:40;6.50;99.90
29295;DHT22;16305;48.566;8.846;2022-11-24T09:57:11;6.60;99.90
29295;DHT22;16305;48.566;8.846;2022-11-24T09:59:40;6.80;99.90
29295;DHT22;16305;48.566;8.846;2022-11-24T10:02:09;6.90;99.90
29295;DHT22;16305;48.566;8.846;2022-11-24T10:04:41;7.10;99.90
29295;DHT22;16305;48.566;8.846;2022-11-24T10:07:17;7.30;99.90
29295;DHT22;16305;48.566;8.846;2022-11-24T10:09:51;7.50;99.90
29295;DHT22;16305;48.566;8.846;2022-11-24T10:26:39;7.40;99.90
29295;DHT22;16305;48.566;8.846;2022-11-24T10:29:23;7.10;99.90
29295;DHT22;16305;48.566;8.846;2022-11-24T10:31:53;7.00;99.90
29295;DHT22;16305;48.566;8.846;2022-11-24T10:34:35;7.00;99.90
29295;DHT22;16305;48.566;8.846;2022-11-24T10:37:20;7.20;99.90
29295;DHT22;16305;48.566;8.846;2022-11-24T10:42:42;7.30;99.90
29295;DHT22;16305;48.566;8.846;2022-11-24T10:45:12;7.40;99.90
29295;DHT22;16305;48.566;8.846;2022-11-24T10:47:38;7.60;99.90
29295;DHT22;16305;48.566;8.846;2022-11-24T10:52:44;8.00;99.90
29295;DHT22;16305;48.566;8.846;2022-11-24T10:55:11;8.10;99.90
29295;DHT22;16305;48.566;8.846;2022-11-24T10:57:39;8.20;99.90
29295;DHT22;16305;48.566;8.846;2022-11-24T11:00:31;8.40;99.90
29295;DHT22;16305;48.566;8.846;2022-11-24T11:03:16;8.50;99.90
29295;DHT22;16305;48.566;8.846;2022-11-24T11:06:11;8.50;99.90
29295;DHT22;16305;48.566;8.846;2022-11-24T11:08:38;8.60;99.90
29295;DHT22;16305;48.566;8.846;2022-11-24T11:11:15;8.50;99.90
29295;DHT22;16305;48.566;8.846;2022-11-24T11:14:06;8.30;99.90
29295;DHT22;16305;48.566;8.846;2022-11-24T11:16:33;8.40;99.90
29295;DHT22;16305;48.566;8.846;2022-11-24T11:21:36;8.70;99.90
29295;DHT22;16305;48.566;8.846;2022-11-24T11:24:13;9.30;99.90
29295;DHT22;16305;48.566;8.846;2022-11-24T11:26:40;9.80;99.90
29295;DHT22;16305;48.566;8.846;2022-11-24T11:31:33;10.80;99.90
29295;DHT22;16305;48.566;8.846;2022-11-24T11:34:14;9.90;99.90
29295;DHT22;16305;48.566;8.846;2022-11-24T11:36:47;9.50;99.90
29295;DHT22;16305;48.566;8.846;2022-11-24T11:39:23;10.70;99.90
29295;DHT22;16305;48.566;8.846;2022-11-24T11:41:53;10.30;99.90
29295;DHT22;16305;48.566;8.846;2022-11-24T11:44:41;9.50;99.90
29295;DHT22;16305;48.566;8.846;2022-11-24T11:47:27;9.90;99.90
29295;DHT22;16305;48.566;8.846;2022-11-24T11:49:54;9.30;99.90
29295;DHT22;16305;48.566;8.846;2022-11-24T11:58:10;9.20;99.90
29295;DHT22;16305;48.566;8.846;2022-11-24T12:00:47;9.40;99.90
29295;DHT22;16305;48.566;8.846;2022-11-24T12:09:19;9.20;99.90
29295;DHT22;16305;48.566;8.846;2022-11-24T12:12:24;9.70;99.90
29295;DHT22;16305;48.566;8.846;2022-11-24T12:25:42;10.10;99.90
29295;DHT22;16305;48.566;8.846;2022-11-24T12:28:28;9.40;99.90
29295;DHT22;16305;48.566;8.846;2022-11-24T12:31:04;9.20;99.90
29295;DHT22;16305;48.566;8.846;2022-11-24T12:39:04;9.10;99.90
29295;DHT22;16305;48.566;8.846;2022-11-24T12:47:39;11.70;99.90
29295;DHT22;16305;48.566;8.846;2022-11-24T12:52:36;13.00;99.90
29295;DHT22;16305;48.566;8.846;2022-11-24T12:55:03;13.90;99.90
29295;DHT22;16305;48.566;8.846;2022-11-24T12:57:35;14.20;99.90
29295;DHT22;16305;48.566;8.846;2022-11-24T13:00:18;14.20;99.90
29295;DHT22;16305;48.566;8.846;2022-11-24T13:02:58;14.00;99.90
29295;DHT22;16305;48.566;8.846;2022-11-24T13:05:40;13.10;99.90
29295;DHT22;16305;48.566;8.846;2022-11-24T13:08:08;13.30;99.90
29295;DHT22;16305;48.566;8.846;2022-11-24T13:10:36;13.40;99.90
29295;DHT22;16305;48.566;8.846;2022-11-24T13:13:10;13.50;99.90
29295;DHT22;16305;48.566;8.846;2022-11-24T13:18:42;13.60;99.90
29295;DHT22;16305;48.566;8.846;2022-11-24T13:21:30;12.30;99.90
29295;DHT22;16305;48.566;8.846;2022-11-24T13:23:57;11.20;99.90
29295;DHT22;16305;48.566;8.846;2022-11-24T13:42:16;11.90;99.90
29295;DHT22;16305;48.566;8.846;2022-11-24T13:44:43;12.20;99.90
29295;DHT22;16305;48.566;8.846;2022-11-24T13:47:43;12.60;99.90
29295;DHT22;16305;48.566;8.846;2022-11-24T13:52:54;13.20;99.90
29295;DHT22;16305;48.566;8.846;2022-11-24T13:55:37;13.20;99.90
29295;DHT22;16305;48.566;8.846;2022-11-24T14:01:00;12.50;99.90
29295;DHT22;16305;48.566;8.846;2022-11-24T14:03:35;11.90;99.90
29295;DHT22;16305;48.566;8.846;2022-11-24T14:06:02;11.50;99.90
29295;DHT22;16305;48.566;8.846;2022-11-24T14:08:32;11.30;99.90
29295;DHT22;16305;48.566;8.846;2022-11-24T14:11:00;10.90;99.90
29295;DHT22;16305;48.566;8.846;2022-11-24T14:13:29;10.90;99.90
29295;DHT22;16305;48.566;8.846;2022-11-24T14:18:35;11.30;99.90
29295;DHT22;16305;48.566;8.846;2022-11-24T14:23:52;11.70;99.90
29295;DHT22;16305;48.566;8.846;2022-11-24T14:26:41;11.40;99.90
29295;DHT22;16305;48.566;8.846;2022-11-24T14:29:15;10.90;99.90
29295;DHT22;16305;48.566;8.846;2022-11-24T14:31:51;10.90;99.90
29295;DHT22;16305;48.566;8.846;2022-11-24T14:34:18;10.60;99.90
29295;DHT22;16305;48.566;8.846;2022-11-24T14:36:46;10.50;99.90
29295;DHT22;16305;48.566;8.846;2022-11-24T14:39:19;10.10;99.90
29295;DHT22;16305;48.566;8.846;2022-11-24T14:42:14;9.90;99.90
29295;DHT22;16305;48.566;8.846;2022-11-24T14:47:13;9.70;99.90
29295;DHT22;16305;48.566;8.846;2022-11-24T14:49:42;9.50;99.90
29295;DHT22;16305;48.566;8.846;2022-11-24T14:52:16;9.30;99.90
29295;DHT22;16305;48.566;8.846;2022-11-24T14:54:51;9.20;99.90
29295;DHT22;16305;48.566;8.846;2022-11-24T14:57:30;9.30;99.90
29295;DHT22;16305;48.566;8.846;2022-11-24T15:00:23;9.30;99.90
29295;DHT22;16305;48.566;8.846;2022-11-24T15:02:53;9.20;99.90
29295;DHT22;16305;48.566;8.846;2022-11-24T15:05:21;9.20;99.90
29295;DHT22;16305;48.566;8.846;2022-11-24T15:07:48;9.10;99.90
29295;DHT22;16305;48.566;8.846;2022-11-24T15:10:35;9.00;99.90
29295;DHT22;16305;48.566;8.846;2022-11-24T15:13:04;8.80;99.90
29295;DHT22;16305;48.566;8.846;2022-11-24T15:15:36;8.60;99.90
29295;DHT22;16305;48.566;8.846;2022-11-24T15:18:04;8.50;99.90
29295;DHT22;16305;48.566;8.846;2022-11-24T15:20:31;8.40;99.90
29295;DHT22;16305;48.566;8.846;2022-11-24T15:25:51;8.50;99.90
29295;DHT22;16305;48.566;8.846;2022-11-24T15:28:17;8.40;99.90
29295;DHT22;16305;48.566;8.846;2022-11-24T15:30:43;8.10;99.90
29295;DHT22;16305;48.566;8.846;2022-11-24T15:33:17;8.10;99.90
29295;DHT22;16305;48.566;8.846;2022-11-24T15:35:43;8.00;99.90
29295;DHT22;16305;48.566;8.846;2022-11-24T15:38:09;7.90;99.90
29295;DHT22;16305;48.566;8.846;2022-11-24T15:40:36;7.70;99.90
29295;DHT22;16305;48.566;8.846;2022-11-24T15:43:04;7.40;99.90
29295;DHT22;16305;48.566;8.846;2022-11-24T15:45:39;7.30;99.90
29295;DHT22;16305;48.566;8.846;2022-11-24T15:48:04;7.00;99.90
29295;DHT22;16305;48.566;8.846;2022-11-24T15:50:30;6.90;99.90
29295;DHT22;16305;48.566;8.846;2022-11-24T15:52:56;6.70;99.90
29295;DHT22;16305;48.566;8.846;2022-11-24T15:55:21;6.80;99.90
29295;DHT22;16305;48.566;8.846;2022-11-24T15:57:48;6.90;99.90
29295;DHT22;16305;48.566;8.846;2022-11-24T16:00:18;6.80;99.90
29295;DHT22;16305;48.566;8.846;2022-11-24T16:02:44;6.70;99.90
29295;DHT22;16305;48.566;8.846;2022-11-24T16:05:11;6.70;99.90
29295;DHT22;16305;48.566;8.846;2022-11-24T16:07:36;6.30;99.90
29295;DHT22;16305;48.566;8.846;2022-11-24T16:10:03;6.10;99.90
29295;DHT22;16305;48.566;8.846;2022-11-24T16:12:28;6.10;99.90
29295;DHT22;16305;48.566;8.846;2022-11-24T16:14:54;6.10;99.90
29295;DHT22;16305;48.566;8.846;2022-11-24T16:17:19;6.00;99.90
29295;DHT22;16305;48.566;8.846;2022-11-24T16:19:45;6.00;99.90
29295;DHT22;16305;48.566;8.846;2022-11-24T16:22:10;5.90;99.90
29295;DHT22;16305;48.566;8.846;2022-11-24T16:24:36;5.80;99.90
29295;DHT22;16305;48.566;8.846;2022-11-24T16:27:01;5.70;99.90
29295;DHT22;16305;48.566;8.846;2022-11-24T16:29:27;5.70;99.90
29295;DHT22;16305;48.566;8.846;2022-11-24T16:31:53;5.60;99.90
29295;DHT22;16305;48.566;8.846;2022-11-24T16:34:18;5.60;99.90
29295;DHT22;16305;48.566;8.846;2022-11-24T16:36:44;5.60;99.90
29295;DHT22;16305;48.566;8.846;2022-11-24T16:39:10;5.60;99.90
29295;DHT22;16305;48.566;8.846;2022-11-24T16:41:35;5.50;99.90
29295;DHT22;16305;48.566;8.846;2022-11-24T16:44:01;5.40;99.90
29295;DHT22;16305;48.566;8.846;2022-11-24T16:46:26;5.30;99.90
29295;DHT22;16305;48.566;8.846;2022-11-24T16:48:53;5.40;99.90
29295;DHT22;16305;48.566;8.846;2022-11-24T16:51:21;5.30;99.90
29295;DHT22;16305;48.566;8.846;2022-11-24T16:53:47;5.20;99.90
29295;DHT22;16305;48.566;8.846;2022-11-24T16:56:13;5.20;99.90
29295;DHT22;16305;48.566;8.846;2022-11-24T16:58:40;5.30;99.90
29295;DHT22;16305;48.566;8.846;2022-11-24T17:01:10;5.30;99.90
29295;DHT22;16305;48.566;8.846;2022-11-24T17:03:37;5.10;99.90
29295;DHT22;16305;48.566;8.846;2022-11-24T17:06:05;5.00;99.90
29295;DHT22;16305;48.566;8.846;2022-11-24T17:08:32;5.00;99.90
29295;DHT22;16305;48.566;8.846;2022-11-24T17:13:32;5.00;99.90
29295;DHT22;16305;48.566;8.846;2022-11-24T17:15:58;4.90;99.90
29295;DHT22;16305;48.566;8.846;2022-11-24T17:18:26;4.70;99.90
29295;DHT22;16305;48.566;8.846;2022-11-24T17:20:51;4.80;99.90
29295;DHT22;16305;48.566;8.846;2022-11-24T17:23:20;4.80;99.90
29295;DHT22;16305;48.566;8.846;2022-11-24T17:25:46;4.90;99.90
29295;DHT22;16305;48.566;8.846;2022-11-24T17:28:13;4.90;99.90
29295;DHT22;16305;48.566;8.846;2022-11-24T17:30:38;4.90;99.90
29295;DHT22;16305;48.566;8.846;2022-11-24T17:33:04;4.90;99.90
29295;DHT22;16305;48.566;8.846;2022-11-24T17:35:32;4.90;99.90